DLH3825 LPPR-EBBR
Flight info
| Callsign | DLH3825 |
|---|---|
| Flight time | 1h 58m |
| Altitude | 24000 |
| Route | TURON P600 ASDEB/N0445F360 DCT LOTEE DCT AZFIC/N0443F340 UN741 ERIGA DCT GODIX DCT PODEM UN873 BAZOS DCT BELDI DCT VEKIN/N0404F240 Z173 ARVOL |
| Aircraft | A320/M-SDE3FGHIRWY/LB1 |
Departure
| Time | 2026-05-07 20:42 |
|---|---|
| Airport | Francisco de Sá Carneiro Airport (LPPR) |
Arrival
| Time | 2026-05-07 22:41 |
|---|---|
| Airport | Brussels Airport (EBBR) |
| Time | Latitude | Longitude | Altitude | Speed | Heading |
|---|---|---|---|---|---|
| 2026-05-07 20:21 | 41.23732 | -8.67266 | 237 ft | 0 kts | 69° |
| 2026-05-07 20:33 | 41.23729 | -8.67276 | 237 ft | 2 kts | 69° |
| 2026-05-07 20:33 | 41.23723 | -8.67297 | 237 ft | 2 kts | 69° |
| 2026-05-07 20:33 | 41.23716 | -8.67318 | 237 ft | 2 kts | 69° |
| 2026-05-07 20:34 | 41.23713 | -8.67328 | 237 ft | 0 kts | 69° |
| 2026-05-07 20:34 | 41.23710 | -8.67350 | 237 ft | 2 kts | 97° |
| 2026-05-07 20:34 | 41.23712 | -8.67372 | 237 ft | 3 kts | 111° |
| 2026-05-07 20:34 | 41.23717 | -8.67389 | 237 ft | 2 kts | 122° |
| 2026-05-07 20:35 | 41.23718 | -8.67391 | 237 ft | 0 kts | 122° |
| 2026-05-07 20:37 | 41.23718 | -8.67390 | 210 ft | 1 kts | 122° |
| 2026-05-07 20:37 | 41.23695 | -8.67358 | 237 ft | 0 kts | 143° |
| 2026-05-07 20:38 | 41.23707 | -8.67371 | 237 ft | 3 kts | 139° |
| 2026-05-07 20:39 | 41.23708 | -8.67373 | 237 ft | 0 kts | 145° |
| 2026-05-07 20:39 | 41.23706 | -8.67374 | 237 ft | 0 kts | 171° |
| 2026-05-07 20:39 | 41.23685 | -8.67410 | 237 ft | 15 kts | 247° |
| 2026-05-07 20:39 | 41.23641 | -8.67467 | 237 ft | 10 kts | 229° |
| 2026-05-07 20:40 | 41.23619 | -8.67544 | 236 ft | 8 kts | 264° |
| 2026-05-07 20:40 | 41.23607 | -8.67634 | 233 ft | 13 kts | 259° |
| 2026-05-07 20:40 | 41.23600 | -8.67678 | 231 ft | 0 kts | 259° |
| 2026-05-07 20:41 | 41.23590 | -8.67753 | 230 ft | 20 kts | 264° |
| 2026-05-07 20:41 | 41.23642 | -8.67820 | 228 ft | 9 kts | 347° |
| 2026-05-07 20:41 | 41.23654 | -8.67823 | 228 ft | 0 kts | 348° |
| 2026-05-07 20:42 | 41.23836 | -8.67871 | 225 ft | 69 kts | 349° |
| 2026-05-07 20:42 | 41.24594 | -8.68072 | 205 ft | 150 kts | 350° |
| 2026-05-07 20:42 | 41.25752 | -8.68368 | 689 ft | 176 kts | 348° |
| 2026-05-07 20:42 | 41.26968 | -8.68687 | 1696 ft | 178 kts | 348° |
| 2026-05-07 20:43 | 41.28157 | -8.68996 | 2490 ft | 175 kts | 348° |
| 2026-05-07 20:43 | 41.29401 | -8.69322 | 2921 ft | 190 kts | 348° |
| 2026-05-07 20:43 | 41.30748 | -8.69677 | 3304 ft | 207 kts | 348° |
| 2026-05-07 20:43 | 41.32226 | -8.70071 | 3714 ft | 225 kts | 348° |
| 2026-05-07 20:44 | 41.33820 | -8.70493 | 4230 ft | 242 kts | 348° |
| 2026-05-07 20:44 | 41.35532 | -8.70946 | 4761 ft | 260 kts | 348° |
| 2026-05-07 20:44 | 41.37356 | -8.71431 | 5376 ft | 273 kts | 347° |
| 2026-05-07 20:44 | 41.39248 | -8.71929 | 6121 ft | 281 kts | 347° |
| 2026-05-07 20:45 | 41.41195 | -8.72430 | 6831 ft | 290 kts | 350° |
| 2026-05-07 20:45 | 41.43239 | -8.72519 | 7599 ft | 296 kts | 5° |
| 2026-05-07 20:45 | 41.45260 | -8.72053 | 8367 ft | 301 kts | 12° |
| 2026-05-07 20:45 | 41.47325 | -8.71517 | 9143 ft | 306 kts | 12° |
| 2026-05-07 20:46 | 41.49436 | -8.70977 | 9918 ft | 311 kts | 12° |
| 2026-05-07 20:46 | 41.51594 | -8.70431 | 10448 ft | 324 kts | 12° |
| 2026-05-07 20:46 | 41.53868 | -8.69854 | 10836 ft | 340 kts | 12° |
| 2026-05-07 20:46 | 41.56179 | -8.69268 | 11192 ft | 357 kts | 12° |
| 2026-05-07 20:47 | 41.58666 | -8.68638 | 11577 ft | 372 kts | 11° |
| 2026-05-07 20:47 | 41.61240 | -8.67986 | 12227 ft | 377 kts | 11° |
| 2026-05-07 20:47 | 41.62622 | -8.67637 | 12605 ft | 378 kts | 11° |
| 2026-05-07 20:47 | 41.64910 | -8.67026 | 13212 ft | 381 kts | 12° |
| 2026-05-07 20:48 | 41.67525 | -8.66348 | 13868 ft | 385 kts | 11° |
| 2026-05-07 20:48 | 41.70164 | -8.65685 | 14492 ft | 388 kts | 11° |
| 2026-05-07 20:48 | 41.72830 | -8.65021 | 15099 ft | 391 kts | 11° |
| 2026-05-07 20:48 | 41.75519 | -8.64351 | 15702 ft | 395 kts | 11° |
| 2026-05-07 20:49 | 41.78232 | -8.63670 | 16305 ft | 398 kts | 11° |
| 2026-05-07 20:49 | 41.80965 | -8.62976 | 16910 ft | 401 kts | 11° |
| 2026-05-07 20:49 | 41.83718 | -8.62271 | 17509 ft | 405 kts | 11° |
| 2026-05-07 20:49 | 41.86495 | -8.61557 | 18101 ft | 408 kts | 11° |
| 2026-05-07 20:50 | 41.89293 | -8.60841 | 18623 ft | 411 kts | 11° |
| 2026-05-07 20:50 | 41.92115 | -8.60120 | 19143 ft | 414 kts | 11° |
| 2026-05-07 20:50 | 41.94951 | -8.59396 | 19674 ft | 417 kts | 11° |
| 2026-05-07 20:50 | 41.97806 | -8.58664 | 20198 ft | 419 kts | 11° |
| 2026-05-07 20:51 | 42.00691 | -8.57922 | 20723 ft | 422 kts | 11° |
| 2026-05-07 20:51 | 42.03541 | -8.57183 | 21216 ft | 425 kts | 11° |
| 2026-05-07 20:51 | 42.06451 | -8.56431 | 21710 ft | 427 kts | 11° |
| 2026-05-07 20:51 | 42.09400 | -8.55772 | 22201 ft | 430 kts | 8° |
| 2026-05-07 20:52 | 42.12351 | -8.55253 | 22524 ft | 420 kts | 6° |
| 2026-05-07 20:52 | 42.15188 | -8.54840 | 22656 ft | 399 kts | 5° |
| 2026-05-07 20:52 | 42.17879 | -8.54482 | 22788 ft | 378 kts | 5° |
| 2026-05-07 20:52 | 42.20435 | -8.54139 | 22928 ft | 358 kts | 5° |
| 2026-05-07 20:53 | 42.22915 | -8.53781 | 23064 ft | 365 kts | 6° |
| 2026-05-07 20:53 | 42.25484 | -8.53388 | 23205 ft | 379 kts | 6° |
| 2026-05-07 20:53 | 42.28144 | -8.52965 | 23345 ft | 392 kts | 6° |
| 2026-05-07 20:53 | 42.30896 | -8.52520 | 23474 ft | 405 kts | 6° |
| 2026-05-07 20:54 | 42.33737 | -8.52062 | 23594 ft | 417 kts | 6° |
| 2026-05-07 20:54 | 42.36660 | -8.51593 | 23709 ft | 429 kts | 6° |
| 2026-05-07 20:54 | 42.39658 | -8.51115 | 23855 ft | 438 kts | 6° |
| 2026-05-07 20:54 | 42.42707 | -8.50625 | 23911 ft | 449 kts | 6° |
| 2026-05-07 20:55 | 42.45815 | -8.50127 | 23917 ft | 459 kts | 6° |
| 2026-05-07 20:55 | 42.48985 | -8.49267 | 23915 ft | 470 kts | 16° |
| 2026-05-07 20:55 | 42.52050 | -8.47625 | 23916 ft | 479 kts | 27° |
| 2026-05-07 20:55 | 42.54896 | -8.45230 | 23913 ft | 486 kts | 37° |
| 2026-05-07 20:56 | 42.57495 | -8.42241 | 23908 ft | 492 kts | 41° |
| 2026-05-07 20:56 | 42.60063 | -8.39190 | 23907 ft | 483 kts | 41° |
| 2026-05-07 20:56 | 42.62595 | -8.36183 | 23918 ft | 487 kts | 41° |
| 2026-05-07 20:56 | 42.65166 | -8.33132 | 23912 ft | 493 kts | 41° |
| 2026-05-07 20:57 | 42.67753 | -8.30063 | 23915 ft | 495 kts | 41° |
| 2026-05-07 20:57 | 42.70344 | -8.26986 | 23914 ft | 495 kts | 41° |
| 2026-05-07 20:57 | 42.72939 | -8.23900 | 23914 ft | 494 kts | 41° |
| 2026-05-07 20:57 | 42.75524 | -8.20822 | 23911 ft | 494 kts | 41° |
| 2026-05-07 20:58 | 42.78108 | -8.17741 | 23914 ft | 493 kts | 41° |
| 2026-05-07 20:58 | 42.80654 | -8.14697 | 23912 ft | 493 kts | 41° |
| 2026-05-07 20:58 | 42.83227 | -8.11620 | 23914 ft | 492 kts | 41° |
| 2026-05-07 20:58 | 42.85803 | -8.08540 | 23914 ft | 492 kts | 41° |
| 2026-05-07 20:59 | 42.88376 | -8.05461 | 23915 ft | 492 kts | 41° |
| 2026-05-07 20:59 | 42.90945 | -8.02380 | 23917 ft | 492 kts | 41° |
| 2026-05-07 20:59 | 42.93507 | -7.99306 | 23915 ft | 492 kts | 41° |
| 2026-05-07 20:59 | 42.96079 | -7.96213 | 23914 ft | 491 kts | 41° |
| 2026-05-07 21:00 | 42.98642 | -7.93124 | 23912 ft | 491 kts | 41° |
| 2026-05-07 21:00 | 43.01201 | -7.90038 | 23918 ft | 491 kts | 41° |
| 2026-05-07 21:00 | 43.03756 | -7.86957 | 23918 ft | 490 kts | 41° |
| 2026-05-07 21:00 | 43.06317 | -7.83871 | 23918 ft | 490 kts | 41° |
| 2026-05-07 21:01 | 43.08877 | -7.80782 | 23922 ft | 490 kts | 41° |
| 2026-05-07 21:01 | 43.11429 | -7.77694 | 23919 ft | 490 kts | 41° |
| 2026-05-07 21:01 | 43.13982 | -7.74600 | 23919 ft | 490 kts | 41° |
| 2026-05-07 21:01 | 43.16534 | -7.71499 | 23914 ft | 490 kts | 41° |
| 2026-05-07 21:02 | 43.19081 | -7.68404 | 23916 ft | 490 kts | 40° |
| 2026-05-07 21:02 | 43.21627 | -7.65305 | 23921 ft | 489 kts | 40° |
| 2026-05-07 21:02 | 43.24172 | -7.62205 | 23924 ft | 490 kts | 41° |
| 2026-05-07 21:02 | 43.26716 | -7.59101 | 23932 ft | 489 kts | 40° |
| 2026-05-07 21:03 | 43.29256 | -7.56002 | 23934 ft | 489 kts | 40° |
| 2026-05-07 21:03 | 43.31803 | -7.52897 | 23929 ft | 489 kts | 40° |
| 2026-05-07 21:03 | 43.34315 | -7.49828 | 23933 ft | 489 kts | 40° |
| 2026-05-07 21:03 | 43.36841 | -7.46736 | 23934 ft | 488 kts | 40° |
| 2026-05-07 21:04 | 43.39388 | -7.43611 | 23933 ft | 488 kts | 40° |
| 2026-05-07 21:04 | 43.41923 | -7.40497 | 23936 ft | 488 kts | 40° |
| 2026-05-07 21:04 | 43.44454 | -7.37384 | 23935 ft | 488 kts | 40° |
| 2026-05-07 21:04 | 43.46975 | -7.34284 | 23938 ft | 488 kts | 40° |
| 2026-05-07 21:05 | 43.49513 | -7.31160 | 23939 ft | 488 kts | 40° |
| 2026-05-07 21:05 | 43.52045 | -7.28039 | 23943 ft | 487 kts | 40° |
| 2026-05-07 21:05 | 43.54571 | -7.24918 | 23941 ft | 487 kts | 40° |
| 2026-05-07 21:05 | 43.57097 | -7.21794 | 23940 ft | 487 kts | 40° |
| 2026-05-07 21:06 | 43.59616 | -7.18673 | 23939 ft | 487 kts | 40° |
| 2026-05-07 21:06 | 43.62139 | -7.15545 | 23936 ft | 487 kts | 40° |
| 2026-05-07 21:06 | 43.64660 | -7.12420 | 23937 ft | 487 kts | 40° |
| 2026-05-07 21:06 | 43.67183 | -7.09287 | 23937 ft | 487 kts | 40° |
| 2026-05-07 21:07 | 43.69700 | -7.06153 | 23936 ft | 487 kts | 40° |
| 2026-05-07 21:07 | 43.72217 | -7.03015 | 23935 ft | 487 kts | 40° |
| 2026-05-07 21:07 | 43.74736 | -6.99874 | 23937 ft | 487 kts | 40° |
| 2026-05-07 21:07 | 43.77252 | -6.96737 | 23934 ft | 487 kts | 40° |
| 2026-05-07 21:08 | 43.79768 | -6.93597 | 23935 ft | 487 kts | 40° |
| 2026-05-07 21:08 | 43.82282 | -6.90451 | 23930 ft | 487 kts | 40° |
| 2026-05-07 21:08 | 43.84795 | -6.87298 | 23934 ft | 487 kts | 40° |
| 2026-05-07 21:08 | 43.87306 | -6.84147 | 23938 ft | 487 kts | 40° |
| 2026-05-07 21:09 | 43.89819 | -6.80992 | 23935 ft | 487 kts | 40° |
| 2026-05-07 21:09 | 43.92329 | -6.77837 | 23936 ft | 487 kts | 40° |
| 2026-05-07 21:09 | 43.94838 | -6.74680 | 23935 ft | 487 kts | 40° |
| 2026-05-07 21:09 | 43.97347 | -6.71525 | 23936 ft | 487 kts | 40° |
| 2026-05-07 21:10 | 43.99011 | -6.69429 | 23937 ft | 487 kts | 40° |
| 2026-05-07 21:10 | 44.01522 | -6.66264 | 23933 ft | 487 kts | 40° |
| 2026-05-07 21:10 | 44.04032 | -6.63097 | 23932 ft | 487 kts | 40° |
| 2026-05-07 21:10 | 44.07349 | -6.58898 | 23937 ft | 487 kts | 40° |
| 2026-05-07 21:11 | 44.09856 | -6.55719 | 23936 ft | 487 kts | 40° |
| 2026-05-07 21:11 | 44.12358 | -6.52540 | 23936 ft | 487 kts | 40° |
| 2026-05-07 21:11 | 44.16550 | -6.47202 | 23936 ft | 487 kts | 40° |
| 2026-05-07 21:12 | 44.19018 | -6.44060 | 23934 ft | 487 kts | 40° |
| 2026-05-07 21:12 | 44.21519 | -6.40880 | 23941 ft | 487 kts | 40° |
| 2026-05-07 21:12 | 44.24020 | -6.37696 | 23938 ft | 487 kts | 40° |
| 2026-05-07 21:12 | 44.26522 | -6.34503 | 23939 ft | 487 kts | 40° |
| 2026-05-07 21:13 | 44.29018 | -6.31304 | 23940 ft | 487 kts | 41° |
| 2026-05-07 21:13 | 44.31510 | -6.28103 | 23939 ft | 487 kts | 41° |
| 2026-05-07 21:13 | 44.34000 | -6.24904 | 23939 ft | 486 kts | 40° |
| 2026-05-07 21:13 | 44.36492 | -6.21708 | 23941 ft | 487 kts | 40° |
| 2026-05-07 21:14 | 44.38989 | -6.18506 | 23941 ft | 487 kts | 40° |
| 2026-05-07 21:14 | 44.41480 | -6.15303 | 23940 ft | 486 kts | 40° |
| 2026-05-07 21:14 | 44.43971 | -6.12094 | 23942 ft | 487 kts | 41° |
| 2026-05-07 21:14 | 44.46462 | -6.08878 | 23936 ft | 487 kts | 41° |
| 2026-05-07 21:15 | 44.48957 | -6.05656 | 23941 ft | 487 kts | 41° |
| 2026-05-07 21:15 | 44.51445 | -6.02438 | 23944 ft | 487 kts | 41° |
| 2026-05-07 21:15 | 44.53938 | -5.99213 | 23946 ft | 487 kts | 41° |
| 2026-05-07 21:15 | 44.56427 | -5.95991 | 23950 ft | 487 kts | 41° |
| 2026-05-07 21:16 | 44.58883 | -5.92806 | 23952 ft | 487 kts | 41° |
| 2026-05-07 21:16 | 44.61371 | -5.89573 | 23952 ft | 488 kts | 41° |
| 2026-05-07 21:16 | 44.63857 | -5.86333 | 23951 ft | 488 kts | 41° |
| 2026-05-07 21:16 | 44.66340 | -5.83088 | 23953 ft | 488 kts | 41° |
| 2026-05-07 21:17 | 44.68799 | -5.79803 | 23950 ft | 488 kts | 42° |
| 2026-05-07 21:17 | 44.71234 | -5.76478 | 23958 ft | 488 kts | 42° |
| 2026-05-07 21:17 | 44.73655 | -5.73128 | 23955 ft | 488 kts | 43° |
| 2026-05-07 21:17 | 44.76073 | -5.69767 | 23956 ft | 488 kts | 43° |
| 2026-05-07 21:18 | 44.78493 | -5.66409 | 23957 ft | 488 kts | 43° |
| 2026-05-07 21:18 | 44.80917 | -5.63058 | 23957 ft | 488 kts | 42° |
| 2026-05-07 21:18 | 44.83346 | -5.59717 | 23955 ft | 488 kts | 42° |
| 2026-05-07 21:18 | 44.85779 | -5.56381 | 23952 ft | 488 kts | 42° |
| 2026-05-07 21:19 | 44.88214 | -5.53042 | 23950 ft | 488 kts | 42° |
| 2026-05-07 21:19 | 44.90651 | -5.49691 | 23955 ft | 489 kts | 42° |
| 2026-05-07 21:19 | 44.93078 | -5.46339 | 23954 ft | 489 kts | 43° |
| 2026-05-07 21:19 | 44.95475 | -5.43015 | 23961 ft | 489 kts | 43° |
| 2026-05-07 21:20 | 44.97902 | -5.39642 | 23955 ft | 489 kts | 43° |
| 2026-05-07 21:20 | 45.00325 | -5.36274 | 23956 ft | 489 kts | 43° |
| 2026-05-07 21:20 | 45.02748 | -5.32900 | 23959 ft | 489 kts | 43° |
| 2026-05-07 21:20 | 45.05170 | -5.29524 | 23960 ft | 489 kts | 43° |
| 2026-05-07 21:21 | 45.07596 | -5.26144 | 23965 ft | 489 kts | 43° |
| 2026-05-07 21:21 | 45.10020 | -5.22769 | 23961 ft | 489 kts | 43° |
| 2026-05-07 21:21 | 45.12441 | -5.19388 | 23961 ft | 489 kts | 43° |
| 2026-05-07 21:21 | 45.14860 | -5.16004 | 23965 ft | 489 kts | 43° |
| 2026-05-07 21:22 | 45.17278 | -5.12610 | 23962 ft | 489 kts | 43° |
| 2026-05-07 21:22 | 45.19698 | -5.09209 | 23970 ft | 489 kts | 43° |
| 2026-05-07 21:22 | 45.22115 | -5.05811 | 23970 ft | 489 kts | 43° |
| 2026-05-07 21:22 | 45.24529 | -5.02412 | 23972 ft | 489 kts | 43° |
| 2026-05-07 21:23 | 45.26947 | -4.99004 | 23975 ft | 489 kts | 43° |
| 2026-05-07 21:23 | 45.29365 | -4.95598 | 23970 ft | 490 kts | 43° |
| 2026-05-07 21:23 | 45.31785 | -4.92197 | 23972 ft | 490 kts | 43° |
| 2026-05-07 21:23 | 45.34207 | -4.88794 | 23971 ft | 490 kts | 43° |
| 2026-05-07 21:24 | 45.36630 | -4.85381 | 23968 ft | 490 kts | 43° |
| 2026-05-07 21:24 | 45.39048 | -4.81963 | 23967 ft | 490 kts | 43° |
| 2026-05-07 21:24 | 45.41460 | -4.78535 | 23968 ft | 490 kts | 43° |
| 2026-05-07 21:24 | 45.43877 | -4.75096 | 23973 ft | 491 kts | 43° |
| 2026-05-07 21:25 | 45.46294 | -4.71653 | 23974 ft | 491 kts | 43° |
| 2026-05-07 21:25 | 45.48706 | -4.68217 | 23978 ft | 491 kts | 43° |
| 2026-05-07 21:25 | 45.51119 | -4.64773 | 23979 ft | 491 kts | 44° |
| 2026-05-07 21:25 | 45.53507 | -4.61367 | 23979 ft | 491 kts | 44° |
| 2026-05-07 21:26 | 45.55923 | -4.57911 | 23976 ft | 491 kts | 44° |
| 2026-05-07 21:26 | 45.58332 | -4.54458 | 23974 ft | 491 kts | 44° |
| 2026-05-07 21:26 | 45.60744 | -4.51005 | 23977 ft | 491 kts | 44° |
| 2026-05-07 21:26 | 45.63153 | -4.47556 | 23977 ft | 491 kts | 44° |
| 2026-05-07 21:27 | 45.65565 | -4.44095 | 23974 ft | 491 kts | 44° |
| 2026-05-07 21:27 | 45.67971 | -4.40631 | 23974 ft | 491 kts | 44° |
| 2026-05-07 21:27 | 45.70378 | -4.37161 | 23974 ft | 491 kts | 44° |
| 2026-05-07 21:27 | 45.72784 | -4.33689 | 23971 ft | 491 kts | 44° |
| 2026-05-07 21:28 | 45.75190 | -4.30212 | 23981 ft | 491 kts | 44° |
| 2026-05-07 21:28 | 45.77595 | -4.26739 | 23979 ft | 491 kts | 44° |
| 2026-05-07 21:28 | 45.80001 | -4.23260 | 23985 ft | 491 kts | 44° |
| 2026-05-07 21:28 | 45.82403 | -4.19781 | 23988 ft | 491 kts | 44° |
| 2026-05-07 21:29 | 45.84803 | -4.16294 | 23987 ft | 491 kts | 44° |
| 2026-05-07 21:29 | 45.87206 | -4.12796 | 23992 ft | 491 kts | 44° |
| 2026-05-07 21:29 | 45.89597 | -4.09307 | 23992 ft | 491 kts | 44° |
| 2026-05-07 21:29 | 45.91992 | -4.05814 | 23994 ft | 491 kts | 44° |
| 2026-05-07 21:30 | 45.94395 | -4.02313 | 23992 ft | 490 kts | 44° |
| 2026-05-07 21:30 | 45.96759 | -3.98868 | 23989 ft | 490 kts | 44° |
| 2026-05-07 21:30 | 45.99153 | -3.95372 | 23996 ft | 491 kts | 44° |
| 2026-05-07 21:30 | 46.01548 | -3.91860 | 23983 ft | 491 kts | 44° |
| 2026-05-07 21:31 | 46.03934 | -3.88355 | 23998 ft | 491 kts | 45° |
| 2026-05-07 21:31 | 46.06352 | -3.84795 | 24000 ft | 490 kts | 45° |
| 2026-05-07 21:31 | 46.08704 | -3.81329 | 24001 ft | 490 kts | 45° |
| 2026-05-07 21:31 | 46.11086 | -3.77819 | 24003 ft | 490 kts | 45° |
| 2026-05-07 21:32 | 46.13469 | -3.74306 | 24005 ft | 490 kts | 45° |
| 2026-05-07 21:32 | 46.15848 | -3.70795 | 24003 ft | 489 kts | 45° |
| 2026-05-07 21:32 | 46.18221 | -3.67286 | 23996 ft | 489 kts | 45° |
| 2026-05-07 21:32 | 46.20600 | -3.63761 | 23988 ft | 489 kts | 45° |
| 2026-05-07 21:33 | 46.22970 | -3.60250 | 23992 ft | 489 kts | 45° |
| 2026-05-07 21:33 | 46.25352 | -3.56719 | 23994 ft | 489 kts | 45° |
| 2026-05-07 21:33 | 46.27729 | -3.53190 | 23994 ft | 489 kts | 45° |
| 2026-05-07 21:33 | 46.30103 | -3.49657 | 24005 ft | 489 kts | 45° |
| 2026-05-07 21:34 | 46.32471 | -3.46127 | 24007 ft | 489 kts | 45° |
| 2026-05-07 21:34 | 46.34841 | -3.42591 | 24007 ft | 489 kts | 45° |
| 2026-05-07 21:34 | 46.37205 | -3.39060 | 23998 ft | 489 kts | 45° |
| 2026-05-07 21:34 | 46.39571 | -3.35518 | 24008 ft | 489 kts | 45° |
| 2026-05-07 21:35 | 46.41937 | -3.31973 | 24012 ft | 489 kts | 45° |
| 2026-05-07 21:35 | 46.44297 | -3.28429 | 24014 ft | 489 kts | 45° |
| 2026-05-07 21:35 | 46.46657 | -3.24876 | 24013 ft | 489 kts | 45° |
| 2026-05-07 21:35 | 46.49019 | -3.21327 | 24012 ft | 489 kts | 45° |
| 2026-05-07 21:36 | 46.51381 | -3.17779 | 24017 ft | 489 kts | 45° |
| 2026-05-07 21:36 | 46.53744 | -3.14224 | 24017 ft | 489 kts | 45° |
| 2026-05-07 21:36 | 46.56078 | -3.10634 | 24012 ft | 489 kts | 49° |
| 2026-05-07 21:36 | 46.58057 | -3.06614 | 24012 ft | 489 kts | 59° |
| 2026-05-07 21:37 | 46.59746 | -3.02388 | 24013 ft | 489 kts | 60° |
| 2026-05-07 21:37 | 46.61455 | -2.98108 | 24016 ft | 489 kts | 60° |
| 2026-05-07 21:37 | 46.63173 | -2.93818 | 24004 ft | 489 kts | 59° |
| 2026-05-07 21:37 | 46.64889 | -2.89543 | 24006 ft | 489 kts | 59° |
| 2026-05-07 21:38 | 46.66607 | -2.85265 | 24006 ft | 489 kts | 59° |
| 2026-05-07 21:38 | 46.68319 | -2.80988 | 24008 ft | 489 kts | 60° |
| 2026-05-07 21:38 | 46.70029 | -2.76703 | 24007 ft | 489 kts | 60° |
| 2026-05-07 21:38 | 46.71735 | -2.72418 | 24001 ft | 489 kts | 60° |
| 2026-05-07 21:39 | 46.73443 | -2.68120 | 24006 ft | 489 kts | 60° |
| 2026-05-07 21:39 | 46.75147 | -2.63827 | 24011 ft | 489 kts | 60° |
| 2026-05-07 21:39 | 46.76848 | -2.59535 | 23999 ft | 489 kts | 60° |
| 2026-05-07 21:39 | 46.78547 | -2.55240 | 23997 ft | 489 kts | 60° |
| 2026-05-07 21:40 | 46.80245 | -2.50941 | 23995 ft | 489 kts | 60° |
| 2026-05-07 21:40 | 46.81943 | -2.46633 | 23998 ft | 489 kts | 60° |
| 2026-05-07 21:40 | 46.83615 | -2.42379 | 24014 ft | 489 kts | 60° |
| 2026-05-07 21:40 | 46.85365 | -2.38040 | 24013 ft | 489 kts | 56° |
| 2026-05-07 21:41 | 46.87462 | -2.34145 | 24011 ft | 488 kts | 46° |
| 2026-05-07 21:41 | 46.89819 | -2.30651 | 24009 ft | 489 kts | 45° |
| 2026-05-07 21:41 | 46.92212 | -2.27118 | 24010 ft | 489 kts | 45° |
| 2026-05-07 21:41 | 46.94604 | -2.23577 | 24005 ft | 489 kts | 45° |
| 2026-05-07 21:42 | 46.96991 | -2.20042 | 23999 ft | 489 kts | 45° |
| 2026-05-07 21:42 | 46.99379 | -2.16498 | 24003 ft | 489 kts | 45° |
| 2026-05-07 21:42 | 47.01765 | -2.12944 | 24001 ft | 489 kts | 45° |
| 2026-05-07 21:42 | 47.04154 | -2.09376 | 24002 ft | 489 kts | 45° |
| 2026-05-07 21:43 | 47.06537 | -2.05810 | 24009 ft | 489 kts | 45° |
| 2026-05-07 21:43 | 47.08916 | -2.02245 | 24011 ft | 489 kts | 45° |
| 2026-05-07 21:43 | 47.11297 | -1.98674 | 24002 ft | 489 kts | 45° |
| 2026-05-07 21:43 | 47.13674 | -1.95104 | 24013 ft | 489 kts | 45° |
| 2026-05-07 21:44 | 47.16054 | -1.91528 | 24011 ft | 489 kts | 45° |
| 2026-05-07 21:44 | 47.18431 | -1.87954 | 24013 ft | 489 kts | 45° |
| 2026-05-07 21:44 | 47.20810 | -1.84371 | 24016 ft | 489 kts | 45° |
| 2026-05-07 21:44 | 47.23155 | -1.80830 | 24014 ft | 489 kts | 45° |
| 2026-05-07 21:45 | 47.25561 | -1.77195 | 24017 ft | 489 kts | 45° |
| 2026-05-07 21:45 | 47.27902 | -1.73652 | 24015 ft | 489 kts | 46° |
| 2026-05-07 21:45 | 47.30274 | -1.70055 | 24012 ft | 489 kts | 46° |
| 2026-05-07 21:45 | 47.32642 | -1.66455 | 24006 ft | 489 kts | 46° |
| 2026-05-07 21:46 | 47.35007 | -1.62857 | 24004 ft | 489 kts | 46° |
| 2026-05-07 21:46 | 47.37383 | -1.59247 | 24001 ft | 490 kts | 46° |
| 2026-05-07 21:46 | 47.39755 | -1.55643 | 24009 ft | 490 kts | 45° |
| 2026-05-07 21:46 | 47.42131 | -1.52028 | 24015 ft | 490 kts | 46° |
| 2026-05-07 21:47 | 47.44510 | -1.48400 | 24010 ft | 493 kts | 46° |
| 2026-05-07 21:47 | 47.46904 | -1.44740 | 23998 ft | 496 kts | 46° |
| 2026-05-07 21:47 | 47.49309 | -1.41055 | 24008 ft | 498 kts | 46° |
| 2026-05-07 21:47 | 47.51686 | -1.37402 | 24002 ft | 500 kts | 46° |
| 2026-05-07 21:48 | 47.54131 | -1.33635 | 24011 ft | 501 kts | 46° |
| 2026-05-07 21:48 | 47.56513 | -1.29962 | 24007 ft | 502 kts | 46° |
| 2026-05-07 21:48 | 47.58935 | -1.26233 | 24003 ft | 502 kts | 46° |
| 2026-05-07 21:48 | 47.61361 | -1.22496 | 24004 ft | 503 kts | 46° |
| 2026-05-07 21:49 | 47.63787 | -1.18756 | 23999 ft | 503 kts | 46° |
| 2026-05-07 21:49 | 47.66206 | -1.15016 | 24011 ft | 503 kts | 46° |
| 2026-05-07 21:49 | 47.68628 | -1.11266 | 24012 ft | 503 kts | 46° |
| 2026-05-07 21:49 | 47.71050 | -1.07507 | 24017 ft | 503 kts | 46° |
| 2026-05-07 21:50 | 47.73474 | -1.03739 | 24012 ft | 503 kts | 46° |
| 2026-05-07 21:50 | 47.75890 | -0.99977 | 24021 ft | 503 kts | 46° |
| 2026-05-07 21:50 | 47.78308 | -0.96211 | 24028 ft | 503 kts | 46° |
| 2026-05-07 21:50 | 47.80722 | -0.92449 | 24022 ft | 503 kts | 46° |
| 2026-05-07 21:51 | 47.83139 | -0.88681 | 24020 ft | 503 kts | 46° |
| 2026-05-07 21:51 | 47.85551 | -0.84915 | 24026 ft | 503 kts | 46° |
| 2026-05-07 21:51 | 47.87931 | -0.81190 | 24032 ft | 503 kts | 46° |
| 2026-05-07 21:51 | 47.90338 | -0.77408 | 24027 ft | 503 kts | 46° |
| 2026-05-07 21:52 | 47.92740 | -0.73623 | 24027 ft | 503 kts | 46° |
| 2026-05-07 21:52 | 47.95144 | -0.69832 | 24034 ft | 503 kts | 46° |
| 2026-05-07 21:52 | 47.97547 | -0.66038 | 24030 ft | 503 kts | 46° |
| 2026-05-07 21:52 | 47.99948 | -0.62247 | 24040 ft | 503 kts | 46° |
| 2026-05-07 21:53 | 48.02349 | -0.58451 | 24044 ft | 502 kts | 47° |
| 2026-05-07 21:53 | 48.04750 | -0.54651 | 24037 ft | 502 kts | 47° |
| 2026-05-07 21:53 | 48.07147 | -0.50851 | 24039 ft | 502 kts | 47° |
| 2026-05-07 21:53 | 48.09540 | -0.47051 | 24029 ft | 502 kts | 47° |
| 2026-05-07 21:54 | 48.11935 | -0.43239 | 24035 ft | 502 kts | 47° |
| 2026-05-07 21:54 | 48.14330 | -0.39429 | 24026 ft | 502 kts | 47° |
| 2026-05-07 21:54 | 48.16724 | -0.35616 | 24032 ft | 502 kts | 47° |
| 2026-05-07 21:54 | 48.19112 | -0.31806 | 24027 ft | 502 kts | 47° |
| 2026-05-07 21:55 | 48.21469 | -0.28037 | 24028 ft | 502 kts | 47° |
| 2026-05-07 21:55 | 48.23860 | -0.24210 | 24031 ft | 502 kts | 47° |
| 2026-05-07 21:55 | 48.26247 | -0.20386 | 24031 ft | 502 kts | 47° |
| 2026-05-07 21:55 | 48.28631 | -0.16551 | 24029 ft | 502 kts | 47° |
| 2026-05-07 21:56 | 48.31019 | -0.12700 | 24033 ft | 502 kts | 47° |
| 2026-05-07 21:56 | 48.33400 | -0.08856 | 24030 ft | 503 kts | 47° |
| 2026-05-07 21:56 | 48.35779 | -0.05015 | 24036 ft | 503 kts | 47° |
| 2026-05-07 21:56 | 48.38148 | -0.01131 | 24033 ft | 503 kts | 49° |
| 2026-05-07 21:57 | 48.40467 | 0.02803 | 24046 ft | 503 kts | 49° |
| 2026-05-07 21:57 | 48.42758 | 0.06787 | 24052 ft | 502 kts | 50° |
| 2026-05-07 21:57 | 48.45026 | 0.10785 | 24056 ft | 502 kts | 50° |
| 2026-05-07 21:57 | 48.47295 | 0.14792 | 24047 ft | 502 kts | 50° |
| 2026-05-07 21:58 | 48.49567 | 0.18788 | 24049 ft | 502 kts | 50° |
| 2026-05-07 21:58 | 48.51848 | 0.22778 | 24043 ft | 503 kts | 50° |
| 2026-05-07 21:58 | 48.54140 | 0.26767 | 24055 ft | 502 kts | 50° |
| 2026-05-07 21:58 | 48.56430 | 0.30747 | 24042 ft | 503 kts | 50° |
| 2026-05-07 21:59 | 48.58725 | 0.34737 | 24057 ft | 503 kts | 50° |
| 2026-05-07 21:59 | 48.61019 | 0.38736 | 24058 ft | 503 kts | 50° |
| 2026-05-07 21:59 | 48.63304 | 0.42734 | 24057 ft | 503 kts | 50° |
| 2026-05-07 21:59 | 48.64815 | 0.45379 | 24062 ft | 503 kts | 50° |
| 2026-05-07 22:00 | 48.67844 | 0.50694 | 24060 ft | 503 kts | 50° |
| 2026-05-07 22:00 | 48.70121 | 0.54704 | 24064 ft | 502 kts | 50° |
| 2026-05-07 22:00 | 48.72404 | 0.58734 | 24065 ft | 503 kts | 50° |
| 2026-05-07 22:00 | 48.73912 | 0.61401 | 24066 ft | 503 kts | 50° |
| 2026-05-07 22:01 | 48.76184 | 0.65422 | 24063 ft | 503 kts | 50° |
| 2026-05-07 22:01 | 48.78488 | 0.69506 | 24052 ft | 503 kts | 50° |
| 2026-05-07 22:01 | 48.80731 | 0.73479 | 24060 ft | 503 kts | 50° |
| 2026-05-07 22:01 | 48.82999 | 0.77503 | 24044 ft | 502 kts | 50° |
| 2026-05-07 22:02 | 48.85273 | 0.81541 | 24067 ft | 503 kts | 50° |
| 2026-05-07 22:02 | 48.87542 | 0.85584 | 24066 ft | 503 kts | 50° |
| 2026-05-07 22:02 | 48.89811 | 0.89638 | 24070 ft | 503 kts | 50° |
| 2026-05-07 22:02 | 48.92077 | 0.93688 | 24076 ft | 503 kts | 50° |
| 2026-05-07 22:03 | 48.94341 | 0.97737 | 24071 ft | 503 kts | 50° |
| 2026-05-07 22:03 | 48.96609 | 1.01801 | 24085 ft | 503 kts | 50° |
| 2026-05-07 22:03 | 48.98875 | 1.05863 | 24086 ft | 503 kts | 50° |
| 2026-05-07 22:03 | 49.01137 | 1.09926 | 24090 ft | 503 kts | 50° |
| 2026-05-07 22:04 | 49.03395 | 1.13994 | 24087 ft | 503 kts | 50° |
| 2026-05-07 22:04 | 49.05651 | 1.18066 | 24090 ft | 503 kts | 50° |
| 2026-05-07 22:04 | 49.07911 | 1.22143 | 24089 ft | 503 kts | 50° |
| 2026-05-07 22:04 | 49.10166 | 1.26217 | 24094 ft | 503 kts | 50° |
| 2026-05-07 22:05 | 49.12418 | 1.30294 | 24094 ft | 503 kts | 50° |
| 2026-05-07 22:05 | 49.14665 | 1.34366 | 24092 ft | 502 kts | 50° |
| 2026-05-07 22:05 | 49.16918 | 1.38456 | 24075 ft | 502 kts | 50° |
| 2026-05-07 22:05 | 49.19141 | 1.42501 | 24074 ft | 502 kts | 50° |
| 2026-05-07 22:06 | 49.21382 | 1.46586 | 24074 ft | 502 kts | 50° |
| 2026-05-07 22:06 | 49.23631 | 1.50692 | 24077 ft | 502 kts | 50° |
| 2026-05-07 22:06 | 49.25876 | 1.54765 | 24068 ft | 502 kts | 48° |
| 2026-05-07 22:06 | 49.28356 | 1.58535 | 24080 ft | 501 kts | 43° |
| 2026-05-07 22:07 | 49.30880 | 1.62217 | 24076 ft | 501 kts | 43° |
| 2026-05-07 22:07 | 49.33408 | 1.65899 | 24079 ft | 501 kts | 43° |
| 2026-05-07 22:07 | 49.35931 | 1.69573 | 24069 ft | 501 kts | 43° |
| 2026-05-07 22:07 | 49.38458 | 1.73264 | 24071 ft | 501 kts | 43° |
| 2026-05-07 22:08 | 49.40977 | 1.76956 | 24075 ft | 501 kts | 43° |
| 2026-05-07 22:08 | 49.43491 | 1.80652 | 24079 ft | 501 kts | 43° |
| 2026-05-07 22:08 | 49.46008 | 1.84357 | 24084 ft | 500 kts | 43° |
| 2026-05-07 22:08 | 49.48524 | 1.88063 | 24078 ft | 500 kts | 43° |
| 2026-05-07 22:09 | 49.51035 | 1.91767 | 24083 ft | 500 kts | 43° |
| 2026-05-07 22:09 | 49.53547 | 1.95483 | 24086 ft | 500 kts | 43° |
| 2026-05-07 22:09 | 49.56050 | 1.99196 | 24075 ft | 500 kts | 43° |
| 2026-05-07 22:09 | 49.58557 | 2.02915 | 24082 ft | 500 kts | 43° |
| 2026-05-07 22:10 | 49.61066 | 2.06637 | 24097 ft | 500 kts | 43° |
| 2026-05-07 22:10 | 49.63569 | 2.10356 | 24095 ft | 500 kts | 43° |
| 2026-05-07 22:10 | 49.66069 | 2.14084 | 24086 ft | 500 kts | 43° |
| 2026-05-07 22:10 | 49.68567 | 2.17816 | 24087 ft | 499 kts | 43° |
| 2026-05-07 22:11 | 49.71034 | 2.21505 | 24087 ft | 500 kts | 43° |
| 2026-05-07 22:11 | 49.73527 | 2.25236 | 24089 ft | 499 kts | 43° |
| 2026-05-07 22:11 | 49.76026 | 2.28975 | 24085 ft | 499 kts | 43° |
| 2026-05-07 22:11 | 49.78522 | 2.32710 | 24086 ft | 500 kts | 43° |
| 2026-05-07 22:12 | 49.81023 | 2.36460 | 24091 ft | 500 kts | 43° |
| 2026-05-07 22:12 | 49.83517 | 2.40210 | 24094 ft | 499 kts | 43° |
| 2026-05-07 22:12 | 49.86010 | 2.43965 | 24093 ft | 499 kts | 43° |
| 2026-05-07 22:12 | 49.88497 | 2.47720 | 24101 ft | 499 kts | 43° |
| 2026-05-07 22:13 | 49.90618 | 2.50931 | 24094 ft | 499 kts | 44° |
| 2026-05-07 22:13 | 49.93107 | 2.54706 | 24096 ft | 499 kts | 44° |
| 2026-05-07 22:13 | 49.95229 | 2.57928 | 24091 ft | 499 kts | 44° |
| 2026-05-07 22:13 | 49.97017 | 2.60646 | 24099 ft | 499 kts | 44° |
| 2026-05-07 22:14 | 49.99499 | 2.64425 | 24097 ft | 499 kts | 44° |
| 2026-05-07 22:14 | 50.01975 | 2.68202 | 24095 ft | 499 kts | 44° |
| 2026-05-07 22:14 | 50.04453 | 2.71982 | 24103 ft | 499 kts | 44° |
| 2026-05-07 22:14 | 50.06930 | 2.75756 | 24110 ft | 498 kts | 44° |
| 2026-05-07 22:15 | 50.09410 | 2.79537 | 24106 ft | 498 kts | 44° |
| 2026-05-07 22:15 | 50.11880 | 2.83315 | 24099 ft | 498 kts | 44° |
| 2026-05-07 22:15 | 50.14352 | 2.87108 | 24104 ft | 498 kts | 44° |
| 2026-05-07 22:15 | 50.16819 | 2.90902 | 24106 ft | 498 kts | 44° |
| 2026-05-07 22:16 | 50.19282 | 2.94700 | 24099 ft | 498 kts | 44° |
| 2026-05-07 22:16 | 50.21745 | 2.98501 | 24097 ft | 498 kts | 44° |
| 2026-05-07 22:16 | 50.24211 | 3.02306 | 24094 ft | 498 kts | 44° |
| 2026-05-07 22:16 | 50.26675 | 3.06112 | 24098 ft | 498 kts | 44° |
| 2026-05-07 22:17 | 50.29127 | 3.09914 | 24084 ft | 491 kts | 44° |
| 2026-05-07 22:17 | 50.31480 | 3.13575 | 24077 ft | 463 kts | 44° |
| 2026-05-07 22:17 | 50.33702 | 3.17040 | 24083 ft | 439 kts | 44° |
| 2026-05-07 22:17 | 50.35805 | 3.20320 | 24086 ft | 430 kts | 44° |
| 2026-05-07 22:18 | 50.37930 | 3.23633 | 24083 ft | 430 kts | 44° |
| 2026-05-07 22:18 | 50.42172 | 3.30242 | 24083 ft | 430 kts | 44° |
| 2026-05-07 22:18 | 50.44291 | 3.33547 | 24081 ft | 430 kts | 44° |
| 2026-05-07 22:19 | 50.46418 | 3.36868 | 24083 ft | 430 kts | 44° |
| 2026-05-07 22:19 | 50.48537 | 3.40180 | 24080 ft | 430 kts | 44° |
| 2026-05-07 22:19 | 50.50655 | 3.43501 | 24081 ft | 430 kts | 44° |
| 2026-05-07 22:19 | 50.52770 | 3.46823 | 24087 ft | 430 kts | 44° |
| 2026-05-07 22:20 | 50.54959 | 3.50015 | 24093 ft | 429 kts | 37° |
| 2026-05-07 22:20 | 50.57381 | 3.52751 | 24093 ft | 428 kts | 33° |
| 2026-05-07 22:20 | 50.59830 | 3.55429 | 24096 ft | 428 kts | 33° |
| 2026-05-07 22:20 | 50.62273 | 3.58107 | 24062 ft | 426 kts | 33° |
| 2026-05-07 22:21 | 50.64661 | 3.60733 | 23831 ft | 423 kts | 34° |
| 2026-05-07 22:21 | 50.67071 | 3.63390 | 23588 ft | 421 kts | 34° |
| 2026-05-07 22:21 | 50.69465 | 3.66033 | 23306 ft | 419 kts | 34° |
| 2026-05-07 22:21 | 50.71853 | 3.68674 | 23034 ft | 418 kts | 34° |
| 2026-05-07 22:22 | 50.74225 | 3.71293 | 22757 ft | 416 kts | 34° |
| 2026-05-07 22:22 | 50.76592 | 3.73914 | 22490 ft | 414 kts | 34° |
| 2026-05-07 22:22 | 50.78943 | 3.76533 | 22215 ft | 412 kts | 34° |
| 2026-05-07 22:22 | 50.81279 | 3.79140 | 21961 ft | 410 kts | 34° |
| 2026-05-07 22:23 | 50.83606 | 3.81738 | 21694 ft | 409 kts | 34° |
| 2026-05-07 22:23 | 50.85890 | 3.84411 | 21437 ft | 408 kts | 39° |
| 2026-05-07 22:23 | 50.87904 | 3.87565 | 21174 ft | 407 kts | 49° |
| 2026-05-07 22:23 | 50.89574 | 3.91178 | 20920 ft | 406 kts | 58° |
| 2026-05-07 22:24 | 50.90943 | 3.95085 | 20665 ft | 405 kts | 65° |
| 2026-05-07 22:24 | 50.91884 | 3.99274 | 20414 ft | 404 kts | 76° |
| 2026-05-07 22:24 | 50.92352 | 4.03648 | 20165 ft | 402 kts | 86° |
| 2026-05-07 22:24 | 50.92361 | 4.07824 | 19937 ft | 400 kts | 94° |
| 2026-05-07 22:25 | 50.92185 | 4.12222 | 19688 ft | 399 kts | 94° |
| 2026-05-07 22:25 | 50.92012 | 4.16526 | 19444 ft | 397 kts | 94° |
| 2026-05-07 22:25 | 50.91835 | 4.20885 | 19189 ft | 393 kts | 94° |
| 2026-05-07 22:25 | 50.91660 | 4.25172 | 18749 ft | 387 kts | 94° |
| 2026-05-07 22:26 | 50.91485 | 4.29411 | 18221 ft | 384 kts | 94° |
| 2026-05-07 22:26 | 50.91309 | 4.33628 | 17693 ft | 380 kts | 94° |
| 2026-05-07 22:26 | 50.91133 | 4.37786 | 17186 ft | 376 kts | 94° |
| 2026-05-07 22:26 | 50.90957 | 4.41898 | 16680 ft | 372 kts | 94° |
| 2026-05-07 22:27 | 50.90780 | 4.45986 | 16167 ft | 369 kts | 94° |
| 2026-05-07 22:27 | 50.90604 | 4.50019 | 15661 ft | 367 kts | 94° |
| 2026-05-07 22:27 | 50.90426 | 4.54038 | 15146 ft | 364 kts | 94° |
| 2026-05-07 22:27 | 50.90248 | 4.58038 | 14634 ft | 362 kts | 94° |
| 2026-05-07 22:28 | 50.90075 | 4.61947 | 14126 ft | 361 kts | 94° |
| 2026-05-07 22:28 | 50.89901 | 4.65907 | 13574 ft | 359 kts | 94° |
| 2026-05-07 22:28 | 50.89726 | 4.69827 | 13039 ft | 356 kts | 95° |
| 2026-05-07 22:28 | 50.89551 | 4.73716 | 12521 ft | 352 kts | 94° |
| 2026-05-07 22:29 | 50.89376 | 4.77575 | 11978 ft | 349 kts | 94° |
| 2026-05-07 22:29 | 50.89202 | 4.81392 | 11446 ft | 346 kts | 94° |
| 2026-05-07 22:29 | 50.89026 | 4.85182 | 10900 ft | 343 kts | 94° |
| 2026-05-07 22:29 | 50.88848 | 4.88924 | 10533 ft | 336 kts | 95° |
| 2026-05-07 22:30 | 50.88675 | 4.92524 | 10410 ft | 321 kts | 94° |
| 2026-05-07 22:30 | 50.88512 | 4.95970 | 10286 ft | 307 kts | 94° |
| 2026-05-07 22:30 | 50.88357 | 4.99271 | 10118 ft | 296 kts | 94° |
| 2026-05-07 22:30 | 50.88205 | 5.02485 | 9977 ft | 291 kts | 95° |
| 2026-05-07 22:31 | 50.88049 | 5.05695 | 9550 ft | 292 kts | 95° |
| 2026-05-07 22:31 | 50.87894 | 5.08889 | 9094 ft | 290 kts | 94° |
| 2026-05-07 22:31 | 50.87739 | 5.12026 | 8655 ft | 289 kts | 94° |
| 2026-05-07 22:31 | 50.87614 | 5.15187 | 8261 ft | 285 kts | 87° |
| 2026-05-07 22:32 | 50.88191 | 5.18080 | 8101 ft | 278 kts | 53° |
| 2026-05-07 22:32 | 50.89679 | 5.19949 | 7978 ft | 276 kts | 19° |
| 2026-05-07 22:32 | 50.91559 | 5.20171 | 7847 ft | 275 kts | 345° |
| 2026-05-07 22:32 | 50.93189 | 5.18679 | 7722 ft | 275 kts | 311° |
| 2026-05-07 22:33 | 50.94019 | 5.15988 | 7592 ft | 276 kts | 282° |
| 2026-05-07 22:33 | 50.94348 | 5.12987 | 7464 ft | 276 kts | 280° |
| 2026-05-07 22:33 | 50.94668 | 5.09991 | 7178 ft | 275 kts | 280° |
| 2026-05-07 22:33 | 50.94986 | 5.07012 | 6794 ft | 273 kts | 280° |
| 2026-05-07 22:34 | 50.95299 | 5.04079 | 6410 ft | 272 kts | 280° |
| 2026-05-07 22:34 | 50.95614 | 5.01129 | 6006 ft | 271 kts | 281° |
| 2026-05-07 22:34 | 50.95929 | 4.98179 | 5618 ft | 271 kts | 281° |
| 2026-05-07 22:34 | 50.96243 | 4.95237 | 5223 ft | 270 kts | 281° |
| 2026-05-07 22:35 | 50.96551 | 4.92338 | 5012 ft | 260 kts | 282° |
| 2026-05-07 22:35 | 50.97101 | 4.89731 | 4953 ft | 241 kts | 296° |
| 2026-05-07 22:35 | 50.97547 | 4.87269 | 4892 ft | 227 kts | 274° |
| 2026-05-07 22:35 | 50.97329 | 4.84817 | 4581 ft | 227 kts | 250° |
| 2026-05-07 22:36 | 50.96789 | 4.82473 | 4258 ft | 222 kts | 250° |
| 2026-05-07 22:36 | 50.96270 | 4.80208 | 3925 ft | 215 kts | 250° |
| 2026-05-07 22:36 | 50.95774 | 4.78028 | 3613 ft | 205 kts | 250° |
| 2026-05-07 22:36 | 50.95304 | 4.75958 | 3316 ft | 192 kts | 250° |
| 2026-05-07 22:37 | 50.94868 | 4.74045 | 3066 ft | 183 kts | 251° |
| 2026-05-07 22:37 | 50.94442 | 4.72177 | 2824 ft | 177 kts | 251° |
| 2026-05-07 22:37 | 50.94045 | 4.70436 | 2684 ft | 160 kts | 251° |
| 2026-05-07 22:37 | 50.93679 | 4.68813 | 2458 ft | 153 kts | 251° |
| 2026-05-07 22:38 | 50.93323 | 4.67268 | 2241 ft | 147 kts | 251° |
| 2026-05-07 22:38 | 50.92974 | 4.65743 | 2030 ft | 147 kts | 251° |
| 2026-05-07 22:38 | 50.92622 | 4.64221 | 1853 ft | 147 kts | 251° |
| 2026-05-07 22:38 | 50.92276 | 4.62704 | 1696 ft | 146 kts | 251° |
| 2026-05-07 22:39 | 50.91933 | 4.61191 | 1489 ft | 146 kts | 251° |
| 2026-05-07 22:39 | 50.91585 | 4.59690 | 1277 ft | 145 kts | 251° |
| 2026-05-07 22:39 | 50.91237 | 4.58187 | 1054 ft | 145 kts | 251° |
| 2026-05-07 22:39 | 50.90893 | 4.56691 | 806 ft | 144 kts | 250° |
| 2026-05-07 22:40 | 50.90556 | 4.55191 | 611 ft | 144 kts | 251° |
| 2026-05-07 22:40 | 50.90210 | 4.53705 | 414 ft | 144 kts | 251° |
| 2026-05-07 22:40 | 50.89868 | 4.52221 | 206 ft | 143 kts | 249° |
| 2026-05-07 22:40 | 50.89547 | 4.50829 | 175 ft | 118 kts | 250° |
| 2026-05-07 22:41 | 50.89333 | 4.49903 | 177 ft | 58 kts | 250° |
| 2026-05-07 22:41 | 50.89258 | 4.49564 | 176 ft | 8 kts | 250° |
| 2026-05-07 22:41 | 50.89233 | 4.49450 | 176 ft | 26 kts | 258° |
| 2026-05-07 22:41 | 50.89296 | 4.49186 | 170 ft | 27 kts | 310° |
| 2026-05-07 22:42 | 50.89399 | 4.49117 | 165 ft | 11 kts | 30° |
| 2026-05-07 22:42 | 50.89479 | 4.49161 | 161 ft | 14 kts | 9° |
| 2026-05-07 22:42 | 50.89611 | 4.49182 | 155 ft | 20 kts | 328° |
| 2026-05-07 22:42 | 50.89721 | 4.49180 | 148 ft | 18 kts | 17° |
| 2026-05-07 22:43 | 50.89860 | 4.49217 | 140 ft | 19 kts | 339° |
| 2026-05-07 22:43 | 50.89898 | 4.49123 | 139 ft | 14 kts | 286° |
| 2026-05-07 22:43 | 50.89928 | 4.48927 | 135 ft | 16 kts | 300° |
| 2026-05-07 22:43 | 50.89970 | 4.48884 | 132 ft | 10 kts | 336° |
| 2026-05-07 22:44 | 50.89994 | 4.48866 | 129 ft | 0 kts | 335° |